Time;durP1;ratioP1;P1;durP2;ratioP2;P2;SDS_P1;SDS_P2;PMS_P1;PMS_P2;Temp;Humidity;BMP_temperature;BMP_pressure;BME280_temperature;BME280_humidity;BME280_pressure;Samples;Min_cycle;Max_cycle;Signal;HPM_P1;HPM_P2
2020/12/31 00:00:39;;;;;;;18.60;13.40;;;3.40;68.90;;;;;;6220030;23;20007;-85
2020/12/31 00:03:05;;;;;;;16.80;11.67;;;3.40;68.70;;;;;;6192501;23;20020;-85
2020/12/31 00:05:31;;;;;;;16.73;10.67;;;3.30;68.60;;;;;;6193713;23;20387;-85
2020/12/31 00:07:56;;;;;;;13.83;9.03;;;3.30;68.70;;;;;;6192105;23;20004;-85
2020/12/31 00:10:22;;;;;;;15.27;9.73;;;3.30;68.70;;;;;;6191888;23;20328;-85
2020/12/31 00:12:48;;;;;;;35.10;9.67;;;3.30;68.60;;;;;;6191859;23;20088;-85
2020/12/31 00:15:13;;;;;;;13.50;8.50;;;3.30;68.60;;;;;;6218972;23;20502;-85
2020/12/31 00:17:39;;;;;;;12.67;8.07;;;3.40;69.20;;;;;;6191705;23;20013;-85
2020/12/31 00:20:06;;;;;;;12.10;8.27;;;3.30;68.30;;;;;;6192112;23;20384;-85
2020/12/31 00:22:32;;;;;;;13.50;8.77;;;3.20;68.40;;;;;;6190608;23;20001;-85
2020/12/31 00:24:57;;;;;;;13.17;8.80;;;3.20;68.50;;;;;;6194163;23;20328;-85
2020/12/31 00:27:23;;;;;;;17.10;8.57;;;3.20;68.60;;;;;;6193106;23;20340;-85
2020/12/31 00:29:49;;;;;;;15.13;7.97;;;3.20;68.40;;;;;;6193591;23;20082;-85
2020/12/31 00:32:15;;;;;;;15.63;8.10;;;3.20;68.40;;;;;;6191325;23;20012;-85
2020/12/31 00:34:40;;;;;;;10.60;8.00;;;3.20;68.40;;;;;;6218466;23;19997;-85
2020/12/31 00:37:06;;;;;;;11.57;7.03;;;3.20;68.40;;;;;;6193574;23;20004;-85
2020/12/31 00:39:32;;;;;;;14.83;6.80;;;3.10;68.60;;;;;;6220989;23;20446;-85
2020/12/31 00:41:58;;;;;;;11.53;7.40;;;3.10;69.30;;;;;;6220340;23;20007;-85
2020/12/31 00:44:23;;;;;;;19.27;10.90;;;3.20;68.70;;;;;;6189679;23;20317;-85
2020/12/31 00:46:49;;;;;;;16.90;10.73;;;3.20;68.50;;;;;;6191925;23;20055;-85
2020/12/31 00:49:14;;;;;;;15.13;9.33;;;3.20;68.20;;;;;;6194104;23;20324;-85
2020/12/31 00:51:40;;;;;;;18.47;8.43;;;3.20;68.10;;;;;;6193935;23;20016;-85
2020/12/31 00:54:06;;;;;;;13.40;7.73;;;3.10;68.00;;;;;;6192599;23;20087;-84
2020/12/31 00:56:32;;;;;;;18.60;9.33;;;3.10;68.00;;;;;;6191195;23;20328;-84
2020/12/31 00:58:57;;;;;;;14.13;8.77;;;3.00;67.90;;;;;;6193048;23;20084;-85
2020/12/31 01:01:23;;;;;;;15.83;10.60;;;3.00;67.70;;;;;;6193374;23;20010;-84
2020/12/31 01:03:49;;;;;;;9.53;6.83;;;2.90;67.70;;;;;;6191820;23;20011;-85
2020/12/31 01:06:14;;;;;;;9.33;5.77;;;2.90;67.90;;;;;;6192762;23;20005;-85
2020/12/31 01:08:40;;;;;;;9.10;5.80;;;2.80;67.70;;;;;;6193117;23;20007;-85
2020/12/31 01:11:06;;;;;;;9.03;5.90;;;2.80;67.80;;;;;;6193695;23;20007;-85
2020/12/31 01:13:31;;;;;;;8.20;5.30;;;2.70;67.70;;;;;;6219342;23;20371;-84
2020/12/31 01:15:57;;;;;;;9.97;5.23;;;2.70;68.00;;;;;;6192782;23;20035;-84
2020/12/31 01:18:23;;;;;;;8.40;5.17;;;2.70;68.00;;;;;;6192084;23;20027;-84
2020/12/31 01:20:49;;;;;;;8.90;4.97;;;2.70;68.00;;;;;;6193333;23;20078;-85
2020/12/31 01:23:15;;;;;;;6.63;4.20;;;2.70;68.10;;;;;;6191626;23;20011;-85
2020/12/31 01:25:41;;;;;;;7.40;5.43;;;2.80;68.00;;;;;;6190655;23;20066;-85
2020/12/31 01:28:06;;;;;;;6.37;4.20;;;2.70;67.80;;;;;;6191978;23;20027;-85
2020/12/31 01:30:32;;;;;;;5.07;3.30;;;2.70;67.80;;;;;;6193094;23;20424;-84
2020/12/31 01:32:58;;;;;;;6.83;3.57;;;2.60;67.90;;;;;;6218410;23;20000;-85
2020/12/31 01:35:24;;;;;;;6.00;3.67;;;2.50;68.10;;;;;;6191664;23;20009;-84
2020/12/31 01:37:50;;;;;;;9.10;3.73;;;2.50;68.20;;;;;;6191913;23;20424;-84
2020/12/31 01:40:15;;;;;;;8.23;3.70;;;2.60;68.20;;;;;;6192142;23;20306;-84
2020/12/31 01:42:43;;;;;;;6.67;4.00;;;2.60;68.10;;;;;;6191638;23;20011;-85
2020/12/31 01:45:09;;;;;;;8.13;4.30;;;2.60;68.20;;;;;;6218649;23;20443;-84
2020/12/31 01:47:36;;;;;;;8.37;4.87;;;2.60;68.20;;;;;;6189613;23;20000;-85
2020/12/31 01:50:03;;;;;;;6.97;4.37;;;2.70;68.20;;;;;;6191386;23;20016;-84
2020/12/31 01:52:30;;;;;;;6.47;4.50;;;2.70;68.00;;;;;;6219840;23;20007;-84
2020/12/31 01:54:57;;;;;;;8.40;4.03;;;2.70;68.10;;;;;;6219215;23;20024;-85
2020/12/31 01:57:22;;;;;;;4.47;2.73;;;2.70;68.30;;;;;;6191446;23;20005;-85
2020/12/31 01:59:49;;;;;;;5.20;2.50;;;2.70;68.40;;;;;;6217482;23;20003;-85
2020/12/31 02:02:15;;;;;;;4.07;2.20;;;2.80;68.30;;;;;;6191787;23;20000;-85
2020/12/31 02:04:41;;;;;;;5.10;2.67;;;2.80;68.10;;;;;;6191994;23;20313;-85
2020/12/31 02:07:07;;;;;;;3.03;2.10;;;2.70;67.70;;;;;;6191793;23;20432;-85
2020/12/31 02:09:33;;;;;;;3.33;2.10;;;2.70;68.20;;;;;;6192587;23;20008;-85
2020/12/31 02:12:04;;;;;;;6.07;2.33;;;2.80;68.40;;;;;;6192848;23;20016;-85
2020/12/31 02:14:29;;;;;;;5.43;2.80;;;2.80;68.30;;;;;;6190478;23;20091;-85
2020/12/31 02:16:55;;;;;;;3.37;2.07;;;2.90;68.20;;;;;;6191161;23;20011;-84
2020/12/31 02:19:22;;;;;;;3.20;1.70;;;2.90;68.10;;;;;;6191969;23;19996;-84
2020/12/31 02:21:48;;;;;;;5.00;2.33;;;3.00;67.90;;;;;;6192130;23;20000;-85
2020/12/31 02:24:15;;;;;;;5.27;2.10;;;3.00;67.80;;;;;;6192109;23;20009;-85
2020/12/31 02:26:42;;;;;;;5.43;2.10;;;2.90;67.80;;;;;;6189885;23;20054;-85
2020/12/31 02:29:10;;;;;;;3.23;1.50;;;3.00;67.80;;;;;;6192199;23;20020;-85
2020/12/31 02:31:39;;;;;;;3.67;2.03;;;3.00;67.90;;;;;;6191674;23;20004;-85
2020/12/31 02:34:06;;;;;;;2.27;1.67;;;3.00;67.70;;;;;;6192223;23;20063;-85
2020/12/31 02:36:35;;;;;;;4.03;1.97;;;3.00;67.50;;;;;;6192487;23;20008;-85
2020/12/31 02:39:04;;;;;;;5.27;2.10;;;3.00;67.60;;;;;;6191716;23;20004;-85
2020/12/31 02:41:30;;;;;;;4.20;2.60;;;3.00;67.40;;;;;;6193091;23;20514;-85
2020/12/31 02:43:56;;;;;;;2.60;1.67;;;3.00;67.30;;;;;;6192003;23;20000;-85
2020/12/31 02:46:22;;;;;;;5.57;2.37;;;3.00;67.20;;;;;;6192041;23;20004;-85
2020/12/31 02:48:49;;;;;;;3.43;1.90;;;2.90;67.60;;;;;;6219062;23;20001;-85
2020/12/31 02:51:16;;;;;;;3.50;2.03;;;2.90;67.40;;;;;;6215796;23;20067;-85
2020/12/31 02:53:42;;;;;;;2.53;1.50;;;2.90;67.40;;;;;;6191431;23;20000;-84
2020/12/31 02:56:18;;;;;;;4.07;1.73;;;2.90;67.50;;;;;;6192064;23;20012;-85
2020/12/31 02:58:45;;;;;;;3.20;1.47;;;2.90;67.50;;;;;;6191122;23;20004;-85
2020/12/31 03:01:11;;;;;;;3.40;1.43;;;2.90;67.30;;;;;;6192657;23;20027;-84
2020/12/31 03:03:37;;;;;;;2.67;1.70;;;2.90;67.30;;;;;;6192559;23;20005;-84
2020/12/31 03:06:04;;;;;;;3.00;1.37;;;2.90;67.30;;;;;;6218228;23;20001;-85
2020/12/31 03:08:30;;;;;;;2.17;1.50;;;3.00;67.30;;;;;;6192313;23;20015;-84
2020/12/31 03:10:56;;;;;;;3.83;1.47;;;2.90;67.40;;;;;;6192380;23;20013;-84
2020/12/31 03:13:23;;;;;;;2.77;1.20;;;2.90;67.30;;;;;;6219199;23;20000;-85
2020/12/31 03:15:53;;;;;;;2.77;1.00;;;2.90;67.10;;;;;;6191738;23;20509;-85
2020/12/31 03:18:19;;;;;;;2.93;1.10;;;2.90;67.10;;;;;;6219177;23;20074;-85
2020/12/31 03:20:46;;;;;;;4.07;1.43;;;2.90;67.10;;;;;;6191177;23;19997;-85
2020/12/31 03:23:13;;;;;;;1.83;1.37;;;2.90;67.10;;;;;;6192374;23;20007;-85
2020/12/31 03:25:42;;;;;;;3.43;1.70;;;2.90;67.10;;;;;;6218702;23;20004;-85
2020/12/31 03:28:09;;;;;;;1.67;1.17;;;2.90;67.20;;;;;;6191506;23;20021;-85
2020/12/31 03:30:36;;;;;;;3.70;1.10;;;2.90;67.10;;;;;;6192018;23;20004;-85
2020/12/31 03:33:03;;;;;;;3.33;1.60;;;2.90;67.10;;;;;;6192492;23;20086;-85
2020/12/31 03:35:28;;;;;;;3.10;1.10;;;3.00;67.10;;;;;;6221222;23;20005;-85
2020/12/31 03:37:54;;;;;;;3.33;1.00;;;3.00;66.90;;;;;;6195559;23;20131;-85
2020/12/31 03:40:21;;;;;;;5.73;1.90;;;3.00;66.80;;;;;;6193473;23;20087;-85
2020/12/31 03:42:46;;;;;;;7.27;4.40;;;2.90;66.90;;;;;;6194198;23;20088;-85
2020/12/31 03:45:13;;;;;;;6.27;2.63;;;3.00;67.10;;;;;;6191506;23;20004;-85
2020/12/31 03:47:39;;;;;;;3.80;1.67;;;3.00;66.80;;;;;;6194299;23;20012;-85
2020/12/31 03:50:05;;;;;;;3.90;1.70;;;3.00;66.80;;;;;;6192875;23;20005;-85
2020/12/31 03:52:31;;;;;;;2.83;1.40;;;2.90;66.70;;;;;;6221813;23;20028;-85
2020/12/31 03:54:57;;;;;;;3.10;1.83;;;2.90;66.90;;;;;;6193571;23;20005;-85
2020/12/31 03:57:23;;;;;;;3.60;2.13;;;2.90;67.00;;;;;;6193242;23;20012;-85
2020/12/31 03:59:49;;;;;;;3.73;1.13;;;2.90;67.10;;;;;;6193578;23;20066;-85
2020/12/31 04:02:14;;;;;;;3.13;1.43;;;2.90;66.90;;;;;;6193572;23;20066;-85
2020/12/31 04:04:40;;;;;;;2.93;1.80;;;2.80;66.90;;;;;;6194031;23;20005;-85
2020/12/31 04:07:06;;;;;;;4.00;1.90;;;2.80;67.60;;;;;;6193665;23;20009;-85
2020/12/31 04:09:31;;;;;;;3.77;1.70;;;2.70;67.20;;;;;;6194534;23;20004;-85
2020/12/31 04:11:59;;;;;;;2.17;1.47;;;2.80;67.10;;;;;;6219917;23;20004;-85
2020/12/31 04:14:25;;;;;;;4.17;1.97;;;2.70;67.10;;;;;;6193484;23;20004;-85
2020/12/31 04:16:50;;;;;;;3.77;1.57;;;2.70;67.10;;;;;;6220666;23;20012;-85
2020/12/31 04:19:16;;;;;;;4.03;1.63;;;2.70;67.40;;;;;;6193486;23;20001;-85
2020/12/31 04:21:42;;;;;;;5.53;1.70;;;2.80;67.40;;;;;;6220542;23;20000;-85
2020/12/31 04:24:08;;;;;;;4.87;1.73;;;2.90;67.30;;;;;;6220361;23;20015;-85
2020/12/31 04:26:33;;;;;;;4.27;1.80;;;3.00;67.00;;;;;;6193298;23;20004;-84
2020/12/31 04:28:59;;;;;;;3.13;1.30;;;3.00;66.70;;;;;;6220367;23;20331;-85
2020/12/31 04:31:25;;;;;;;3.80;1.93;;;2.90;66.60;;;;;;6192842;23;20570;-85
2020/12/31 04:33:50;;;;;;;4.73;2.50;;;3.00;66.80;;;;;;6193973;23;20324;-85
2020/12/31 04:36:17;;;;;;;4.77;1.70;;;3.10;66.70;;;;;;6193318;23;20000;-85
2020/12/31 04:38:43;;;;;;;3.33;2.33;;;3.00;66.20;;;;;;6220749;23;20001;-85
2020/12/31 04:41:11;;;;;;;3.80;1.90;;;3.00;66.40;;;;;;6192651;23;20044;-85
2020/12/31 04:43:37;;;;;;;3.07;1.50;;;3.00;66.60;;;;;;6193771;23;20416;-85
2020/12/31 04:46:06;;;;;;;3.83;1.53;;;3.00;66.50;;;;;;6218239;23;20104;-85
2020/12/31 04:48:39;;;;;;;2.63;1.37;;;2.90;66.60;;;;;;6192883;23;20009;-85
2020/12/31 04:51:11;;;;;;;2.47;1.47;;;2.90;66.80;;;;;;6192247;23;20004;-85
2020/12/31 04:53:38;;;;;;;2.67;1.95;;;2.90;66.80;;;;;;6193624;23;20008;-85
2020/12/31 04:56:04;;;;;;;3.27;1.77;;;2.90;66.80;;;;;;6192424;23;20004;-85
2020/12/31 04:58:30;;;;;;;3.23;1.80;;;2.90;66.60;;;;;;6192226;23;20007;-85
2020/12/31 05:00:56;;;;;;;5.53;2.50;;;2.90;66.60;;;;;;6219576;23;20668;-85
2020/12/31 05:03:22;;;;;;;4.93;2.20;;;3.00;66.50;;;;;;6193731;23;20008;-85
2020/12/31 05:05:53;;;;;;;5.00;2.60;;;2.90;66.30;;;;;;6190669;23;20018;-85
2020/12/31 05:08:29;;;;;;;5.53;3.20;;;2.90;66.00;;;;;;6192057;23;20008;-85
2020/12/31 05:10:56;;;;;;;9.77;5.73;;;2.90;66.60;;;;;;6191405;23;20436;-85
2020/12/31 05:13:22;;;;;;;5.77;3.27;;;2.80;66.00;;;;;;6193286;23;20004;-85
2020/12/31 05:15:48;;;;;;;5.60;3.50;;;2.80;65.90;;;;;;6192480;23;20008;-85
2020/12/31 05:18:23;;;;;;;5.50;3.40;;;2.90;66.20;;;;;;6193279;23;19997;-84
2020/12/31 05:21:00;;;;;;;4.87;2.73;;;2.90;66.10;;;;;;6192706;23;20024;-85
2020/12/31 05:23:27;;;;;;;5.17;3.00;;;2.90;66.20;;;;;;6220519;23;20000;-85
2020/12/31 05:25:54;;;;;;;9.97;5.90;;;2.90;66.20;;;;;;6217681;23;20004;-84
2020/12/31 05:28:37;;;;;;;6.47;4.33;;;2.80;66.10;;;;;;6190828;23;20671;-84
2020/12/31 05:31:12;;;;;;;9.55;6.20;;;2.80;66.40;;;;;;6192010;23;20004;-85
2020/12/31 05:33:40;;;;;;;4.83;3.17;;;2.90;66.40;;;;;;6193606;23;20031;-85
2020/12/31 05:36:25;;;;;;;6.93;3.57;;;2.90;66.50;;;;;;6193049;23;20040;-85
2020/12/31 05:39:03;;;;;;;6.90;3.60;;;2.90;66.40;;;;;;6193669;23;20001;-85
2020/12/31 05:41:33;;;;;;;8.43;4.43;;;2.90;66.30;;;;;;6191784;23;20011;-85
2020/12/31 05:44:07;;;;;;;6.60;3.47;;;2.80;66.30;;;;;;6220164;23;20001;-85
2020/12/31 05:46:35;;;;;;;8.90;4.83;;;2.70;66.30;;;;;;6220978;23;20000;-85
2020/12/31 05:49:02;;;;;;;7.90;5.00;;;2.70;66.40;;;;;;6220727;23;20473;-85
2020/12/31 05:51:32;;;;;;;6.87;3.50;;;2.60;66.20;;;;;;6218854;23;19997;-85
2020/12/31 05:54:16;;;;;;;6.13;3.40;;;2.50;66.00;;;;;;6193507;23;20007;-85
2020/12/31 05:56:45;;;;;;;7.60;3.20;;;2.50;66.40;;;;;;6193699;23;20009;-85
2020/12/31 05:59:38;;;;;;;5.20;2.90;;;2.50;66.20;;;;;;6192488;23;20004;-85
2020/12/31 06:02:04;;;;;;;4.50;2.88;;;2.40;66.00;;;;;;6188486;23;20534;-85
2020/12/31 06:04:44;;;;;;;5.27;2.67;;;2.40;66.20;;;;;;6192853;23;20015;-85
2020/12/31 06:07:28;;;;;;;6.90;3.93;;;2.30;66.20;;;;;;6192853;23;20062;-85
2020/12/31 06:10:06;;;;;;;6.83;4.47;;;2.30;66.40;;;;;;6193469;23;20419;-85
2020/12/31 06:12:53;;;;;;;5.30;3.63;;;2.30;66.50;;;;;;6194234;23;20008;-85
2020/12/31 06:15:20;;;;;;;5.47;3.50;;;2.30;66.20;;;;;;6193736;23;20009;-85
2020/12/31 06:17:47;;;;;;;5.93;3.93;;;2.20;66.10;;;;;;6193877;23;20004;-85
2020/12/31 06:20:15;;;;;;;7.90;3.97;;;2.30;66.50;;;;;;6194209;23;20424;-85
2020/12/31 06:23:05;;;;;;;11.53;4.27;;;2.30;66.30;;;;;;6194374;23;20376;-85
2020/12/31 06:25:40;;;;;;;9.77;4.53;;;2.20;66.30;;;;;;6193159;23;20009;-85
2020/12/31 06:28:13;;;;;;;10.80;5.80;;;2.20;66.10;;;;;;6192516;23;20395;-85
2020/12/31 06:30:40;;;;;;;;;;;2.20;66.50;;;;;;6189788;23;20168;-85
2020/12/31 06:33:20;;;;;;;16.10;7.30;;;2.30;66.50;;;;;;6186643;23;20650;-85
2020/12/31 06:35:50;;;;;;;13.53;6.03;;;2.30;66.10;;;;;;6207516;23;20001;-85
2020/12/31 06:38:28;;;;;;;15.60;5.80;;;2.20;66.30;;;;;;6217394;23;20431;-85
2020/12/31 06:40:53;;;;;;;8.70;5.47;;;2.10;66.20;;;;;;6192966;23;20000;-84
2020/12/31 06:43:28;;;;;;;6.87;3.97;;;2.10;66.00;;;;;;6193293;23;20005;-85
2020/12/31 06:45:54;;;;;;;6.97;4.30;;;1.90;65.80;;;;;;6192957;23;20455;-84
2020/12/31 06:48:26;;;;;;;20.70;10.33;;;1.90;66.10;;;;;;6192105;23;20013;-85
2020/12/31 06:51:00;;;;;;;25.30;11.93;;;2.00;66.30;;;;;;6191455;23;20012;-85
2020/12/31 06:53:44;;;;;;;23.80;12.60;;;2.00;66.10;;;;;;6218499;23;20001;-85
2020/12/31 06:56:11;;;;;;;20.57;10.90;;;2.00;65.90;;;;;;6192505;23;20039;-85
2020/12/31 06:58:39;;;;;;;20.50;9.90;;;2.00;65.90;;;;;;6192019;23;20001;-84
2020/12/31 07:01:23;;;;;;;27.97;15.00;;;2.00;66.20;;;;;;6192536;23;20005;-85
2020/12/31 07:03:49;;;;;;;28.97;14.90;;;2.10;66.10;;;;;;6219098;23;20008;-85
2020/12/31 07:06:21;;;;;;;32.90;14.83;;;2.10;65.90;;;;;;6192959;23;20005;-85
2020/12/31 07:08:47;;;;;;;44.03;19.52;;;2.00;65.80;;;;;;6221349;23;20004;-85
2020/12/31 07:11:13;;;;;;;33.10;16.97;;;2.00;65.70;;;;;;6194567;23;20012;-85
2020/12/31 07:13:40;;;;;;;12.60;7.97;;;2.00;65.60;;;;;;6221123;23;20074;-85
2020/12/31 07:16:06;;;;;;;18.40;9.87;;;1.90;65.80;;;;;;6195105;23;20093;-85
2020/12/31 07:18:32;;;;;;;16.80;9.23;;;1.90;65.80;;;;;;6220486;23;20000;-84
2020/12/31 07:21:01;;;;;;;18.27;9.90;;;1.90;65.80;;;;;;6221921;23;20428;-84
2020/12/31 07:23:37;;;;;;;13.37;7.67;;;1.90;65.60;;;;;;6194084;23;20361;-85
2020/12/31 07:26:03;;;;;;;11.77;6.77;;;1.90;65.60;;;;;;6220744;23;20000;-85
2020/12/31 07:28:29;;;;;;;12.87;7.67;;;1.90;65.60;;;;;;6194059;23;20016;-85
2020/12/31 07:30:55;;;;;;;15.27;8.60;;;1.90;65.70;;;;;;6195476;23;20028;-84
2020/12/31 07:33:37;;;;;;;22.57;10.70;;;1.90;65.70;;;;;;6193397;23;20008;-84
2020/12/31 07:36:13;;;;;;;19.57;9.87;;;1.90;65.60;;;;;;6195070;23;20488;-84
2020/12/31 07:38:39;;;;;;;19.03;9.80;;;1.80;65.40;;;;;;6194184;23;20231;-85
2020/12/31 07:41:11;;;;;;;15.67;10.00;;;1.70;65.40;;;;;;6193202;23;20091;-84
2020/12/31 07:43:37;;;;;;;17.30;11.07;;;1.70;65.40;;;;;;6194429;23;20051;-85
2020/12/31 07:46:04;;;;;;;16.73;10.43;;;1.70;65.40;;;;;;6192026;23;20009;-85
2020/12/31 07:48:31;;;;;;;18.03;10.70;;;1.60;65.50;;;;;;6222127;23;20238;-84
2020/12/31 07:51:01;;;;;;;19.80;10.83;;;1.60;65.60;;;;;;6193960;23;20035;-85
2020/12/31 07:53:29;;;;;;;18.17;9.30;;;1.60;65.90;;;;;;6220280;23;20027;-85
2020/12/31 07:55:56;;;;;;;13.07;8.27;;;1.70;66.00;;;;;;6193352;23;20004;-85
2020/12/31 07:58:23;;;;;;;15.20;7.43;;;1.70;66.00;;;;;;6190673;23;20431;-85
2020/12/31 08:00:58;;;;;;;13.10;7.33;;;1.80;65.80;;;;;;6219468;23;20024;-85
2020/12/31 08:03:24;;;;;;;12.30;8.10;;;1.80;65.50;;;;;;6193845;23;20001;-85
2020/12/31 08:05:56;;;;;;;14.73;9.93;;;1.70;65.40;;;;;;6191511;23;20067;-85
2020/12/31 08:08:22;;;;;;;17.63;9.77;;;1.70;65.60;;;;;;6194482;23;20032;-85
2020/12/31 08:10:48;;;;;;;12.40;8.47;;;1.70;65.60;;;;;;6194191;23;20011;-85
2020/12/31 08:13:16;;;;;;;11.47;6.87;;;1.70;65.60;;;;;;6221894;23;20000;-85
2020/12/31 08:15:47;;;;;;;14.07;8.50;;;1.70;65.30;;;;;;6195139;23;20016;-85
2020/12/31 08:18:14;;;;;;;15.63;9.10;;;1.80;65.50;;;;;;6194649;23;20059;-85
2020/12/31 08:20:41;;;;;;;36.47;10.10;;;1.80;65.30;;;;;;6219056;23;19996;-85
2020/12/31 08:23:17;;;;;;;12.43;6.83;;;1.90;65.20;;;;;;6220963;23;20048;-85
2020/12/31 08:25:44;;;;;;;12.10;6.53;;;1.90;64.90;;;;;;6222197;23;20000;-85
2020/12/31 08:28:10;;;;;;;12.90;6.57;;;1.90;64.90;;;;;;6193667;23;20016;-84
2020/12/31 08:30:37;;;;;;;11.53;6.37;;;1.90;65.60;;;;;;6194050;23;20407;-85
2020/12/31 08:33:07;;;;;;;12.33;7.37;;;1.90;64.90;;;;;;6193746;23;20030;-85
2020/12/31 08:35:40;;;;;;;9.93;5.57;;;1.80;64.60;;;;;;6193690;23;20332;-85
2020/12/31 08:38:14;;;;;;;8.23;6.40;;;1.70;64.40;;;;;;6190799;23;20005;-85
2020/12/31 08:40:52;;;;;;;8.90;5.37;;;1.70;64.70;;;;;;6189648;23;20039;-85
2020/12/31 08:43:51;;;;;;;9.77;4.90;;;1.80;64.70;;;;;;6220838;23;19997;-84
2020/12/31 08:46:21;;;;;;;12.60;6.57;;;1.80;64.70;;;;;;6172582;23;20008;-85
2020/12/31 08:48:54;;;;;;;10.13;5.93;;;1.80;64.80;;;;;;6191598;23;20001;-85
2020/12/31 08:51:21;;;;;;;9.10;5.73;;;1.80;64.80;;;;;;6217443;23;20000;-85
2020/12/31 08:53:51;;;;;;;9.73;5.07;;;1.80;64.80;;;;;;6193309;23;20007;-85
2020/12/31 08:56:18;;;;;;;17.23;8.50;;;1.90;64.70;;;;;;6220550;23;20068;-85
2020/12/31 08:58:44;;;;;;;19.60;11.43;;;1.90;64.50;;;;;;6194626;23;20024;-85
2020/12/31 09:01:26;;;;;;;19.37;11.43;;;1.90;64.40;;;;;;6221302;23;20328;-85
2020/12/31 09:04:16;;;;;;;14.43;7.22;;;1.90;64.60;;;;;;6192575;23;20011;-85
2020/12/31 09:06:43;;;;;;;10.17;5.93;;;1.80;64.40;;;;;;6189270;23;20335;-85
2020/12/31 09:09:16;;;;;;;12.53;4.77;;;1.80;64.70;;;;;;6219127;23;20024;-85
2020/12/31 09:12:01;;;;;;;10.77;6.43;;;1.70;64.80;;;;;;6221047;23;20001;-85
2020/12/31 09:14:28;;;;;;;10.70;6.57;;;1.90;65.10;;;;;;6194203;23;20458;-85
2020/12/31 09:16:54;;;;;;;13.93;7.90;;;2.20;65.60;;;;;;6193979;23;20428;-85
2020/12/31 09:19:21;;;;;;;16.40;8.27;;;2.40;64.60;;;;;;6219308;23;19997;-85
2020/12/31 09:21:46;;;;;;;15.57;8.23;;;2.40;64.70;;;;;;6194345;23;20439;-85
2020/12/31 09:24:13;;;;;;;16.53;8.90;;;2.70;64.70;;;;;;6219765;23;20001;-85
2020/12/31 09:26:39;;;;;;;14.87;9.40;;;2.80;64.00;;;;;;6192917;23;20001;-85
2020/12/31 09:29:08;;;;;;;12.73;8.30;;;2.90;63.60;;;;;;6192690;23;20074;-85
2020/12/31 09:31:36;;;;;;;14.70;9.33;;;3.10;63.60;;;;;;6193848;23;20306;-85
2020/12/31 09:34:01;;;;;;;15.30;9.17;;;3.40;64.20;;;;;;6195102;23;20005;-85
2020/12/31 09:36:27;;;;;;;12.10;7.00;;;3.70;63.00;;;;;;6194066;23;20086;-85
2020/12/31 09:38:53;;;;;;;12.07;6.97;;;3.70;61.30;;;;;;6194508;23;20011;-85
2020/12/31 09:41:19;;;;;;;11.90;6.00;;;3.50;61.00;;;;;;6220796;23;20376;-85
2020/12/31 09:43:45;;;;;;;10.40;5.97;;;3.50;60.30;;;;;;6218825;23;20016;-85
2020/12/31 09:46:16;;;;;;;10.20;5.70;;;3.60;60.20;;;;;;6220317;23;20001;-85
2020/12/31 09:48:41;;;;;;;10.67;5.73;;;3.70;59.70;;;;;;6193675;23;20075;-85
2020/12/31 09:51:08;;;;;;;10.30;6.30;;;3.70;59.10;;;;;;6193616;23;20005;-85
2020/12/31 09:53:34;;;;;;;9.97;6.07;;;3.70;58.80;;;;;;6193189;23;20018;-85
2020/12/31 09:56:00;;;;;;;9.97;5.40;;;3.70;59.00;;;;;;6194372;23;20395;-85
2020/12/31 09:58:26;;;;;;;10.23;5.73;;;3.80;58.60;;;;;;6194013;23;20004;-85
2020/12/31 10:00:52;;;;;;;7.00;4.30;;;3.80;58.00;;;;;;6192697;23;20528;-85
2020/12/31 10:03:17;;;;;;;6.80;4.20;;;4.10;58.00;;;;;;6192580;23;20010;-85
2020/12/31 10:05:45;;;;;;;7.97;4.80;;;4.20;56.90;;;;;;6220574;23;20005;-85
2020/12/31 10:08:10;;;;;;;9.60;6.33;;;4.30;56.90;;;;;;6220574;23;20058;-85
2020/12/31 10:10:36;;;;;;;11.60;7.03;;;4.50;56.90;;;;;;6192652;23;20424;-85
2020/12/31 10:13:02;;;;;;;15.53;8.70;;;4.90;57.00;;;;;;6220796;23;20439;-85
2020/12/31 10:15:28;;;;;;;13.47;8.70;;;5.10;56.70;;;;;;6193280;23;20551;-85
2020/12/31 10:17:53;;;;;;;12.83;8.03;;;5.30;56.80;;;;;;6193101;23;20009;-85
2020/12/31 10:20:19;;;;;;;10.93;7.77;;;5.50;56.10;;;;;;6192516;23;20038;-85
2020/12/31 10:22:45;;;;;;;11.57;7.33;;;5.30;55.50;;;;;;6192797;23;20416;-85
2020/12/31 10:25:10;;;;;;;11.90;8.10;;;5.40;56.00;;;;;;6193623;23;20051;-85
2020/12/31 10:27:36;;;;;;;12.93;8.37;;;5.60;56.00;;;;;;6192270;23;20091;-85
2020/12/31 10:30:04;;;;;;;17.73;9.43;;;5.70;56.00;;;;;;6220488;23;20011;-85
2020/12/31 10:32:30;;;;;;;13.00;9.27;;;5.90;55.50;;;;;;6193477;23;20016;-85
2020/12/31 10:34:55;;;;;;;17.50;10.70;;;6.00;55.60;;;;;;6192797;23;20001;-85
2020/12/31 10:37:21;;;;;;;19.10;11.00;;;6.30;55.90;;;;;;6220192;23;20332;-85
2020/12/31 10:39:47;;;;;;;15.20;9.20;;;6.60;55.60;;;;;;6192579;23;20424;-85
2020/12/31 10:42:12;;;;;;;13.93;8.47;;;6.80;55.10;;;;;;6193641;23;19997;-85
2020/12/31 10:44:38;;;;;;;16.90;9.53;;;6.90;54.80;;;;;;6193638;23;20005;-85
2020/12/31 10:47:04;;;;;;;10.83;6.40;;;7.00;54.70;;;;;;6221120;23;19996;-85
2020/12/31 10:49:30;;;;;;;9.47;6.90;;;6.90;53.70;;;;;;6220919;23;20305;-85
2020/12/31 10:51:55;;;;;;;9.40;6.87;;;6.90;53.80;;;;;;6194526;23;20005;-85
2020/12/31 10:54:21;;;;;;;9.57;6.70;;;6.90;53.00;;;;;;6194754;23;20004;-85
2020/12/31 10:56:48;;;;;;;9.97;6.83;;;6.70;52.50;;;;;;6189504;23;20083;-85
2020/12/31 10:59:14;;;;;;;10.07;6.50;;;6.40;52.30;;;;;;6193564;23;20083;-85
2020/12/31 11:01:40;;;;;;;12.83;7.97;;;6.30;52.90;;;;;;6193844;23;20000;-85
2020/12/31 11:04:06;;;;;;;12.07;7.13;;;6.40;53.10;;;;;;6194693;23;20134;-85
2020/12/31 11:06:31;;;;;;;9.57;6.33;;;6.40;52.50;;;;;;6195150;23;20450;-85
2020/12/31 11:08:57;;;;;;;11.50;7.17;;;6.40;52.60;;;;;;6193829;23;20375;-85
2020/12/31 11:11:26;;;;;;;8.60;6.17;;;6.50;52.40;;;;;;6220868;23;20000;-85
2020/12/31 11:13:52;;;;;;;9.03;6.13;;;6.50;52.00;;;;;;6194924;23;20313;-85
2020/12/31 11:16:18;;;;;;;9.73;6.10;;;6.60;51.70;;;;;;6194104;23;20009;-85
2020/12/31 11:18:44;;;;;;;7.87;5.40;;;6.60;51.40;;;;;;6193341;23;20498;-85
2020/12/31 11:21:14;;;;;;;6.73;4.23;;;6.50;50.90;;;;;;6218768;23;20001;-85
2020/12/31 11:23:41;;;;;;;7.93;4.47;;;6.30;50.80;;;;;;6192350;23;20005;-85
2020/12/31 11:26:17;;;;;;;7.93;4.13;;;6.40;50.90;;;;;;6192850;23;20338;-85
2020/12/31 11:28:44;;;;;;;7.37;4.50;;;6.40;50.00;;;;;;6216932;23;20095;-85
2020/12/31 11:31:12;;;;;;;7.13;4.40;;;6.40;50.00;;;;;;6192343;23;20016;-85
2020/12/31 11:33:46;;;;;;;9.30;5.17;;;6.30;49.70;;;;;;6193103;23;20389;-85
2020/12/31 11:36:12;;;;;;;6.97;3.90;;;6.40;50.20;;;;;;6193576;23;20027;-85
2020/12/31 11:38:39;;;;;;;9.50;4.47;;;6.30;49.80;;;;;;6219407;23;19996;-85
2020/12/31 11:41:05;;;;;;;9.33;4.87;;;6.20;49.50;;;;;;6193214;23;20000;-86
2020/12/31 11:43:32;;;;;;;7.00;4.40;;;6.20;49.60;;;;;;6192340;23;20104;-85
2020/12/31 11:46:00;;;;;;;9.57;5.27;;;6.30;49.70;;;;;;6195391;23;20039;-85
2020/12/31 11:48:51;;;;;;;8.73;4.90;;;6.40;50.30;;;;;;6222079;23;20008;-85
2020/12/31 11:51:24;;;;;;;7.80;5.07;;;6.30;49.50;;;;;;6174349;23;20009;-84
2020/12/31 11:54:00;;;;;;;7.90;5.17;;;6.20;49.20;;;;;;6197866;23;20019;-85
2020/12/31 11:56:26;;;;;;;10.20;6.10;;;6.30;50.10;;;;;;6196990;23;20000;-84
2020/12/31 11:58:56;;;;;;;7.20;5.10;;;6.40;50.20;;;;;;6172352;23;20008;-84
2020/12/31 12:01:26;;;;;;;8.20;5.77;;;6.60;50.60;;;;;;6172716;23;20454;-84
2020/12/31 12:03:56;;;;;;;7.50;5.00;;;6.50;49.80;;;;;;6172106;23;20005;-84
2020/12/31 12:06:26;;;;;;;10.67;5.30;;;6.20;50.00;;;;;;6197227;23;20371;-85
2020/12/31 12:08:55;;;;;;;8.60;5.38;;;6.10;50.20;;;;;;6174098;23;20009;-84
2020/12/31 12:11:37;;;;;;;8.40;5.73;;;6.20;50.30;;;;;;6222455;23;20005;-84
2020/12/31 12:14:11;;;;;;;12.27;6.20;;;6.20;50.40;;;;;;6197774;23;20004;-85
2020/12/31 12:16:47;;;;;;;9.00;6.37;;;6.40;51.10;;;;;;6196928;23;20087;-85
2020/12/31 12:19:14;;;;;;;10.63;6.73;;;6.60;51.20;;;;;;6172995;23;20432;-84
2020/12/31 12:21:51;;;;;;;11.73;7.30;;;6.60;51.00;;;;;;6196978;23;20009;-84
2020/12/31 12:24:31;;;;;;;9.63;6.03;;;6.60;50.80;;;;;;6170526;23;20519;-84
2020/12/31 12:26:59;;;;;;;7.40;4.90;;;6.80;50.60;;;;;;6199784;23;20336;-85
2020/12/31 12:29:29;;;;;;;9.10;5.33;;;6.90;50.40;;;;;;6195723;23;20012;-85
2020/12/31 12:32:19;;;;;;;9.93;4.97;;;7.10;50.20;;;;;;6172816;23;20000;-86
2020/12/31 12:34:46;;;;;;;7.43;3.60;;;7.30;49.90;;;;;;6218582;22;20067;-85
2020/12/31 12:37:31;;;;;;;6.67;4.80;;;7.30;49.50;;;;;;6197214;23;20004;-86
2020/12/31 12:40:16;;;;;;;8.80;5.27;;;7.30;49.30;;;;;;6221002;23;20439;-86
2020/12/31 12:42:53;;;;;;;11.00;5.93;;;7.40;49.30;;;;;;6253887;22;20346;-85
2020/12/31 12:45:19;;;;;;;8.87;6.47;;;7.30;49.20;;;;;;6253277;23;20001;-84
2020/12/31 12:47:44;;;;;;;9.57;5.77;;;7.10;49.60;;;;;;6254816;23;20007;-85
2020/12/31 12:50:10;;;;;;;10.33;5.70;;;7.20;50.10;;;;;;6227185;23;20000;-84
2020/12/31 12:52:37;;;;;;;8.27;4.53;;;7.20;49.90;;;;;;6227736;23;20011;-85
2020/12/31 12:55:07;;;;;;;6.40;3.27;;;7.00;49.50;;;;;;6226806;23;20008;-84
2020/12/31 12:57:33;;;;;;;6.83;3.70;;;6.90;49.10;;;;;;6227129;23;20000;-84
2020/12/31 12:59:59;;;;;;;13.80;4.27;;;6.90;49.00;;;;;;6226756;23;20004;-85